LLHA/HFA METAR and TAF weather

Enter ICAO airport designator
Station Type Date Time Source
LLHA METAR 2022/06/27 08:50 UTC NOAA

LLHA 270850Z 24008KT 210V290 9999 FEW020 30/17 Q1009


Station Type Date Time Source
LLHA Decoded METAR 2022/06/27 08:50 UTC NOAA

Sde-Haifa Haifa, Israel (LLHA) 32-48N 035-02E 8M
Jun 27, 2022 - 04:50 AM EDT / 2022.06.27 0850 UTC
Wind: from the WSW (240 degrees) at 9 MPH (8 KT) (direction variable):0
Visibility: greater than 7 mile(s):0
Sky conditions: mostly clear
Temperature: 86 F (30 C)
Dew Point: 62 F (17 C)
Relative Humidity: 45%
Pressure (altimeter): 29.80 in. Hg (1009 hPa)
ob: LLHA 270850Z 24008KT 210V290 9999 FEW020 30/17 Q1009
cycle: 9

Station Type Date Time Source
LLHA TAF 2022/06/27 06:00 UTC NOAA

TAF LLHA 270505Z 2706/2806 21006KT 9999 FEW020
BECMG 2707/2709 25008KT FEW025
BECMG 2711/2713 31012KT
BECMG 2715/2717 VRB03KT FEW017
BECMG 2721/2723 7000 SCT015 PROB40
TEMPO 2800/2804 5000 BR BKN013 TX30/2710Z TN23/2803Z

Example: see airport list